Time;durP1;ratioP1;P1;durP2;ratioP2;P2;SDS_P1;SDS_P2;PMS_P1;PMS_P2;Temp;Humidity;BMP_temperature;BMP_pressure;BME280_temperature;BME280_humidity;BME280_pressure;Samples;Min_cycle;Max_cycle;Signal;HPM_P1;HPM_P2
2023/03/30 00:00:17;;;;;;;;;;;;;;;;;;4970947;28;20520;-64
2023/03/30 00:02:44;;;;;;;;;;;;;;;;;;4975752;28;19930;-62
2023/03/30 00:05:22;;;;;;;2.70;2.22;;;;;;;;;;4979228;28;19937;-62
2023/03/30 00:07:50;;;;;;;2.28;1.88;;;;;;;;;;4976341;28;20117;-63
2023/03/30 00:10:26;;;;;;;2.72;2.10;;;;;;;;;;4985556;28;20058;-62
2023/03/30 00:12:53;;;;;;;2.65;2.00;;;;;;;;;;4982571;28;20082;-57
2023/03/30 00:15:21;;;;;;;2.65;2.17;;;;;;;;;;4986564;28;20549;-64
2023/03/30 00:17:55;;;;;;;2.42;1.90;;;;;;;;;;4981698;28;20082;-52
2023/03/30 00:20:22;;;;;;;2.13;1.90;;;;;;;;;;4987530;28;20596;-54
2023/03/30 00:22:56;;;;;;;2.80;1.45;;;;;;;;;;4979882;28;20058;-50
2023/03/30 00:25:30;;;;;;;2.22;2.00;;;;;;;;;;4986457;28;20049;-54
2023/03/30 00:28:04;;;;;;;2.03;1.85;;;;;;;;;;4983667;28;20054;-53
2023/03/30 00:30:45;;;;;;;3.47;2.33;;;;;;;;;;4981111;28;20786;-54
2023/03/30 00:33:19;;;;;;;5.03;2.28;;;;;;;;;;4983933;28;20054;-62
2023/03/30 00:36:11;;;;;;;2.70;1.77;;;;;;;;;;4975645;28;20069;-55
2023/03/30 00:38:39;;;;;;;3.00;2.30;;;;;;;;;;4981774;28;20058;-55
2023/03/30 00:41:13;;;;;;;3.78;2.20;;;;;;;;;;4982213;28;20057;-54
2023/03/30 00:43:59;;;;;;;2.33;1.83;;;;;;;;;;4978642;28;20064;-54
2023/03/30 00:46:33;;;;;;;2.20;1.90;;;;;;;;;;4966603;28;20575;-57
2023/03/30 00:49:02;;;;;;;;;;;;;;;;;;4974290;28;20056;-51
2023/03/30 00:51:32;;;;;;;2.38;1.70;;;;;;;;;;4970715;28;20408;-63
2023/03/30 00:54:08;;;;;;;2.75;2.00;;;;;;;;;;4975884;28;20675;-64
2023/03/30 00:56:35;;;;;;;3.70;2.35;;;;;;;;;;4975607;28;20065;-64
2023/03/30 00:59:09;;;;;;;2.80;2.38;;;;;;;;;;4985542;28;20066;-64
2023/03/30 01:01:39;;;;;;;;;;;;;;;;;;4986088;28;20474;-49
2023/03/30 01:04:13;;;;;;;3.67;2.03;;;;;;;;;;4973997;28;19933;-56
2023/03/30 01:06:42;;;;;;;3.17;1.50;;;;;;;;;;4983543;28;20050;-55
2023/03/30 01:09:09;;;;;;;2.28;1.80;;;;;;;;;;4969839;28;20711;-52
2023/03/30 01:11:43;;;;;;;2.95;2.20;;;;;;;;;;4984471;28;20061;-52
2023/03/30 01:14:11;;;;;;;4.13;2.15;;;;;;;;;;4976888;28;20054;-52
2023/03/30 01:17:00;;;;;;;2.58;2.17;;;;;;;;;;4978422;28;20117;-56
2023/03/30 01:19:50;;;;;;;2.60;2.20;;;;;;;;;;4987477;28;20050;-63
2023/03/30 01:22:30;;;;;;;1.77;1.60;;;;;;;;;;4962770;28;20149;-64
2023/03/30 01:25:13;;;;;;;4.07;2.40;;;;;;;;;;4975729;28;20055;-63
2023/03/30 01:28:06;;;;;;;2.83;2.50;;;;;;;;;;4985858;28;20068;-62
2023/03/30 01:30:40;;;;;;;3.17;2.40;;;;;;;;;;4991712;28;20084;-54
2023/03/30 01:33:14;;;;;;;3.22;2.40;;;;;;;;;;4977026;28;20058;-61
2023/03/30 01:35:51;;;;;;;4.80;2.38;;;;;;;;;;4974680;28;20357;-62
2023/03/30 01:38:44;;;;;;;2.75;2.03;;;;;;;;;;4985944;28;20061;-61
2023/03/30 01:41:12;;;;;;;9.98;2.63;;;;;;;;;;4979295;28;20049;-62
2023/03/30 01:44:00;;;;;;;2.38;2.17;;;;;;;;;;4979526;28;20671;-62
2023/03/30 01:46:29;;;;;;;3.30;2.47;;;;;;;;;;4988812;28;20058;-52
2023/03/30 01:49:15;;;;;;;3.13;2.55;;;;;;;;;;4979449;28;20093;-58
2023/03/30 01:51:57;;;;;;;3.05;2.50;;;;;;;;;;4974591;28;20089;-57
2023/03/30 01:54:32;;;;;;;2.70;2.38;;;;;;;;;;4982760;28;20137;-49
2023/03/30 01:57:13;;;;;;;3.13;2.38;;;;;;;;;;4969305;28;20061;-52
2023/03/30 01:59:45;;;;;;;3.97;2.65;;;;;;;;;;4985047;28;20085;-50
2023/03/30 02:02:20;;;;;;;4.47;2.80;;;;;;;;;;4985391;28;20058;-49
2023/03/30 02:04:48;;;;;;;4.00;2.92;;;;;;;;;;4985995;28;20054;-57
2023/03/30 02:07:15;;;;;;;;;;;;;;;;;;4973947;28;20046;-55
2023/03/30 02:09:50;;;;;;;1.70;1.38;;;;;;;;;;4989226;28;19937;-56
2023/03/30 02:12:19;;;;;;;3.75;2.60;;;;;;;;;;4974895;28;20059;-57
2023/03/30 02:14:53;;;;;;;3.50;2.50;;;;;;;;;;4987330;28;20061;-56
2023/03/30 02:17:28;;;;;;;5.68;3.20;;;;;;;;;;4984030;28;20046;-64
2023/03/30 02:20:03;;;;;;;3.13;2.55;;;;;;;;;;4974440;28;20051;-54
2023/03/30 02:22:37;;;;;;;3.05;2.55;;;;;;;;;;4981016;28;20050;-56
2023/03/30 02:25:05;;;;;;;3.55;2.58;;;;;;;;;;4974737;28;20056;-52
2023/03/30 02:27:33;;;;;;;3.03;2.60;;;;;;;;;;4957250;28;20173;-57
2023/03/30 02:30:14;;;;;;;3.00;2.22;;;;;;;;;;4990303;28;20112;-55
2023/03/30 02:33:00;;;;;;;3.40;2.72;;;;;;;;;;4969690;28;20062;-54
2023/03/30 02:35:43;;;;;;;4.60;3.00;;;;;;;;;;4974845;28;20053;-52
2023/03/30 02:38:29;;;;;;;3.42;2.58;;;;;;;;;;4976715;28;20054;-49
2023/03/30 02:41:03;;;;;;;3.55;2.83;;;;;;;;;;4984588;28;20050;-52
2023/03/30 02:43:30;;;;;;;;;;;;;;;;;;4987161;28;20058;-48
2023/03/30 02:46:09;;;;;;;4.60;3.20;;;;;;;;;;4981917;28;20023;-50
2023/03/30 02:48:46;;;;;;;3.97;2.70;;;;;;;;;;4983915;28;20062;-48
2023/03/30 02:51:32;;;;;;;3.33;2.95;;;;;;;;;;4985800;28;20050;-50
2023/03/30 02:54:22;;;;;;;4.68;2.47;;;;;;;;;;4985462;28;20055;-51
2023/03/30 02:56:56;;;;;;;4.00;2.97;;;;;;;;;;4983627;28;20141;-52
2023/03/30 02:59:33;;;;;;;3.03;2.67;;;;;;;;;;4982698;28;20490;-52
2023/03/30 03:02:04;;;;;;;4.00;2.97;;;;;;;;;;4985843;28;20514;-49
2023/03/30 03:04:42;;;;;;;3.88;2.72;;;;;;;;;;4983335;28;20116;-53
2023/03/30 03:07:11;;;;;;;4.20;3.22;;;;;;;;;;4986396;28;20141;-51
2023/03/30 03:09:46;;;;;;;2.90;2.55;;;;;;;;;;4981947;28;20050;-54
2023/03/30 03:12:15;;;;;;;3.72;2.97;;;;;;;;;;4983550;28;20062;-50
2023/03/30 03:14:49;;;;;;;5.55;3.05;;;;;;;;;;4986710;28;20062;-51
2023/03/30 03:17:21;;;;;;;3.30;2.75;;;;;;;;;;4982102;28;20058;-55
2023/03/30 03:19:54;;;;;;;4.82;3.17;;;;;;;;;;4985687;28;20147;-53
2023/03/30 03:22:28;;;;;;;3.92;3.00;;;;;;;;;;4954703;28;20422;-52
2023/03/30 03:24:55;;;;;;;3.10;2.63;;;;;;;;;;4984735;28;20060;-57
2023/03/30 03:27:29;;;;;;;4.22;3.40;;;;;;;;;;4986601;28;20062;-55
2023/03/30 03:30:10;;;;;;;4.75;3.20;;;;;;;;;;4987180;28;20145;-57
2023/03/30 03:32:44;;;;;;;4.82;2.42;;;;;;;;;;4984045;28;20517;-55
2023/03/30 03:35:18;;;;;;;4.07;3.20;;;;;;;;;;4986396;28;20069;-61
2023/03/30 03:37:45;;;;;;;4.38;3.00;;;;;;;;;;4986100;28;20050;-63
2023/03/30 03:40:19;;;;;;;3.70;3.10;;;;;;;;;;4985610;28;20510;-59
2023/03/30 03:42:47;;;;;;;3.72;2.72;;;;;;;;;;4981931;28;20060;-60
2023/03/30 03:45:14;;;;;;;4.60;3.15;;;;;;;;;;4989292;28;20138;-60
2023/03/30 03:47:50;;;;;;;6.22;3.55;;;;;;;;;;4981018;28;20517;-60
2023/03/30 03:50:17;;;;;;;5.20;3.58;;;;;;;;;;4988962;28;20108;-60
2023/03/30 03:52:51;;;;;;;3.75;2.50;;;;;;;;;;4988735;28;20073;-60
2023/03/30 03:55:18;;;;;;;4.38;3.70;;;;;;;;;;4980974;28;20054;-62
2023/03/30 03:57:52;;;;;;;4.90;3.38;;;;;;;;;;4983683;28;20551;-62
2023/03/30 04:00:19;;;;;;;4.90;3.50;;;;;;;;;;4984185;28;20497;-61
2023/03/30 04:02:46;;;;;;;;;;;;;;;;;;4980781;28;20065;-63
2023/03/30 04:05:20;;;;;;;4.32;3.15;;;;;;;;;;4977330;28;20611;-61
2023/03/30 04:07:52;;;;;;;4.53;3.50;;;;;;;;;;4982590;28;20105;-57
2023/03/30 04:10:26;;;;;;;4.60;3.28;;;;;;;;;;4980814;28;20414;-55
2023/03/30 04:12:57;;;;;;;3.80;2.92;;;;;;;;;;4982296;28;20065;-58
2023/03/30 04:15:24;;;;;;;4.68;3.42;;;;;;;;;;4985366;28;20603;-52
2023/03/30 04:17:58;;;;;;;4.22;3.60;;;;;;;;;;4977808;28;20051;-53
2023/03/30 04:20:25;;;;;;;;;;;;;;;;;;4984211;28;20054;-53
2023/03/30 04:22:53;;;;;;;6.40;3.42;;;;;;;;;;4980445;28;19930;-64
2023/03/30 04:25:27;;;;;;;3.75;3.00;;;;;;;;;;4985068;28;20486;-64
2023/03/30 04:27:55;;;;;;;5.20;3.80;;;;;;;;;;4982784;28;20165;-65
2023/03/30 04:30:36;;;;;;;4.43;3.47;;;;;;;;;;4979652;28;20050;-64
2023/03/30 04:33:03;;;;;;;5.53;3.30;;;;;;;;;;4984785;28;20058;-63
2023/03/30 04:35:37;;;;;;;5.18;3.40;;;;;;;;;;4986482;28;20065;-65
2023/03/30 04:38:12;;;;;;;5.05;3.50;;;;;;;;;;4985794;28;20052;-64
2023/03/30 04:40:40;;;;;;;3.92;3.03;;;;;;;;;;4987763;28;20058;-64
2023/03/30 04:43:08;;;;;;;4.32;3.53;;;;;;;;;;4984979;28;20414;-56
2023/03/30 04:45:42;;;;;;;4.53;3.67;;;;;;;;;;4985880;28;20072;-57
2023/03/30 04:48:09;;;;;;;5.80;3.70;;;;;;;;;;4979310;28;20048;-54
2023/03/30 04:50:45;;;;;;;4.75;3.60;;;;;;;;;;4979168;28;20899;-58
2023/03/30 04:53:18;;;;;;;3.88;3.05;;;;;;;;;;4962735;28;20125;-59
2023/03/30 04:55:52;;;;;;;4.68;3.33;;;;;;;;;;4985390;28;20054;-61
2023/03/30 04:58:19;;;;;;;4.72;3.30;;;;;;;;;;4978636;28;20050;-57
2023/03/30 05:00:46;;;;;;;6.45;3.60;;;;;;;;;;4984756;28;20065;-59
2023/03/30 05:03:20;;;;;;;4.40;3.35;;;;;;;;;;4974721;28;20149;-64
2023/03/30 05:05:49;;;;;;;5.15;3.78;;;;;;;;;;4982687;28;20054;-65
2023/03/30 05:08:23;;;;;;;3.88;3.20;;;;;;;;;;4989984;28;20506;-63
2023/03/30 05:10:50;;;;;;;5.45;3.40;;;;;;;;;;4995905;28;20077;-63
2023/03/30 05:13:17;;;;;;;6.18;3.17;;;;;;;;;;4993893;28;20068;-63
2023/03/30 05:15:54;;;;;;;3.70;3.20;;;;;;;;;;4995473;28;20057;-63
2023/03/30 05:18:21;;;;;;;4.10;2.90;;;;;;;;;;4989545;28;20058;-59
2023/03/30 05:20:57;;;;;;;3.85;2.95;;;;;;;;;;4990089;28;20072;-60
2023/03/30 05:23:24;;;;;;;4.32;2.70;;;;;;;;;;4991117;28;20148;-59
2023/03/30 05:25:53;;;;;;;6.18;2.92;;;;;;;;;;4992360;28;20054;-60
2023/03/30 05:28:34;;;;;;;7.82;2.75;;;;;;;;;;4990549;28;20042;-53
2023/03/30 05:31:08;;;;;;;3.72;2.75;;;;;;;;;;4995515;28;20084;-52
2023/03/30 05:33:42;;;;;;;3.75;2.40;;;;;;;;;;4990400;28;20579;-54
2023/03/30 05:36:10;;;;;;;4.75;2.65;;;;;;;;;;4993803;28;20057;-55
2023/03/30 05:38:46;;;;;;;4.10;2.78;;;;;;;;;;4991465;28;20069;-56
2023/03/30 05:41:14;;;;;;;4.38;2.70;;;;;;;;;;4995657;28;20152;-50
2023/03/30 05:43:41;;;;;;;4.97;3.03;;;;;;;;;;4992361;28;20069;-52
2023/03/30 05:46:22;;;;;;;2.28;2.05;;;;;;;;;;4994342;28;20052;-62
2023/03/30 05:48:49;;;;;;;3.95;2.50;;;;;;;;;;4990609;28;20054;-62
2023/03/30 05:51:23;;;;;;;4.45;2.20;;;;;;;;;;4995009;28;20112;-62
2023/03/30 05:53:51;;;;;;;3.28;2.30;;;;;;;;;;4993155;28;20090;-61
2023/03/30 05:56:18;;;;;;;5.40;2.40;;;;;;;;;;4995581;28;20406;-53
2023/03/30 05:58:52;;;;;;;3.20;2.45;;;;;;;;;;4995712;28;20478;-56
2023/03/30 06:01:20;;;;;;;5.63;2.40;;;;;;;;;;4994295;28;20078;-62
2023/03/30 06:03:54;;;;;;;5.30;2.15;;;;;;;;;;4994650;28;20054;-63
2023/03/30 06:06:22;;;;;;;2.65;2.10;;;;;;;;;;4988942;28;20065;-63
2023/03/30 06:08:50;;;;;;;2.05;1.85;;;;;;;;;;4985848;28;20501;-63
2023/03/30 06:11:24;;;;;;;4.90;2.25;;;;;;;;;;4991079;28;20050;-64
2023/03/30 06:13:51;;;;;;;3.63;2.20;;;;;;;;;;4989641;28;20591;-63
2023/03/30 06:16:27;;;;;;;3.00;2.00;;;;;;;;;;4988702;28;20061;-58
2023/03/30 06:18:55;;;;;;;1.95;1.75;;;;;;;;;;4988561;28;20150;-53
2023/03/30 06:21:22;;;;;;;2.25;1.70;;;;;;;;;;4990044;28;20133;-57
2023/03/30 06:23:56;;;;;;;1.92;1.65;;;;;;;;;;4988141;28;20047;-58
2023/03/30 06:26:23;;;;;;;2.38;1.52;;;;;;;;;;4992929;28;20137;-58
2023/03/30 06:29:11;;;;;;;1.40;1.25;;;;;;;;;;4991692;28;20058;-58
2023/03/30 06:31:38;;;;;;;2.28;1.70;;;;;;;;;;4990166;28;20061;-56
2023/03/30 06:34:12;;;;;;;2.65;1.70;;;;;;;;;;4987775;28;20137;-55
2023/03/30 06:36:40;;;;;;;3.25;1.90;;;;;;;;;;4990198;28;20050;-59
2023/03/30 06:39:11;;;;;;;2.65;1.98;;;;;;;;;;4971736;28;20065;-54
2023/03/30 06:41:45;;;;;;;2.85;2.00;;;;;;;;;;4989044;28;20057;-56
2023/03/30 06:44:13;;;;;;;2.25;1.52;;;;;;;;;;4991054;28;20573;-62
2023/03/30 06:46:48;;;;;;;3.15;1.70;;;;;;;;;;4988027;28;20062;-57
2023/03/30 06:49:15;;;;;;;1.42;1.33;;;;;;;;;;4986092;28;20074;-59
2023/03/30 06:51:42;;;;;;;2.20;1.75;;;;;;;;;;4985436;28;20538;-59
2023/03/30 06:54:19;;;;;;;2.00;1.42;;;;;;;;;;4989055;28;20068;-58
2023/03/30 06:56:46;;;;;;;2.20;1.60;;;;;;;;;;4988792;28;20087;-59
2023/03/30 06:59:14;;;;;;;2.10;1.60;;;;;;;;;;4988375;28;20457;-58
2023/03/30 07:01:48;;;;;;;2.28;1.88;;;;;;;;;;4985967;28;20054;-60
2023/03/30 07:04:15;;;;;;;1.98;1.77;;;;;;;;;;4986860;28;20054;-54
2023/03/30 07:06:50;;;;;;;1.85;1.60;;;;;;;;;;4986279;28;20050;-57
2023/03/30 07:09:18;;;;;;;3.50;1.83;;;;;;;;;;4988654;28;20597;-58
2023/03/30 07:11:45;;;;;;;1.55;1.45;;;;;;;;;;4990343;28;20137;-56
2023/03/30 07:14:22;;;;;;;1.48;1.33;;;;;;;;;;4990344;28;20506;-58
2023/03/30 07:16:49;;;;;;;1.95;1.20;;;;;;;;;;4989241;28;20488;-59
2023/03/30 07:19:23;;;;;;;1.25;1.15;;;;;;;;;;4991047;28;20411;-58
2023/03/30 07:21:50;;;;;;;2.47;1.27;;;;;;;;;;4989292;28;20668;-59
2023/03/30 07:24:24;;;;;;;1.60;1.50;;;;;;;;;;4988532;28;20413;-59
2023/03/30 07:26:51;;;;;;;3.47;1.60;;;;;;;;;;4990976;28;20065;-60
2023/03/30 07:29:18;;;;;;;2.17;1.65;;;;;;;;;;4991069;28;20066;-59
2023/03/30 07:31:59;;;;;;;2.42;1.67;;;;;;;;;;4986468;28;20057;-59
2023/03/30 07:34:26;;;;;;;2.20;1.90;;;;;;;;;;4986368;28;20140;-60
2023/03/30 07:37:00;;;;;;;3.55;2.17;;;;;;;;;;4990677;28;20128;-60
2023/03/30 07:39:28;;;;;;;1.50;1.40;;;;;;;;;;4989721;28;20509;-56
2023/03/30 07:41:56;;;;;;;1.95;1.48;;;;;;;;;;4987841;28;20046;-59
2023/03/30 07:44:30;;;;;;;4.20;1.70;;;;;;;;;;4988850;28;20062;-56
2023/03/30 07:46:58;;;;;;;1.80;1.63;;;;;;;;;;4990317;28;20137;-58
2023/03/30 07:49:31;;;;;;;3.33;1.77;;;;;;;;;;4989833;28;20064;-57
2023/03/30 07:51:58;;;;;;;2.63;1.85;;;;;;;;;;4983343;28;20050;-58
2023/03/30 07:54:25;;;;;;;1.48;1.30;;;;;;;;;;4989443;28;20108;-60
2023/03/30 07:56:59;;;;;;;1.70;1.60;;;;;;;;;;4987054;28;20058;-60
2023/03/30 07:59:26;;;;;;;2.75;1.80;;;;;;;;;;4990058;28;20046;-57
2023/03/30 08:02:00;;;;;;;1.55;1.38;;;;;;;;;;4981666;28;20445;-60
2023/03/30 08:04:27;;;;;;;2.30;1.38;;;;;;;;;;4994109;28;20053;-61
2023/03/30 08:06:55;;;;;;;1.90;1.67;;;;;;;;;;4988336;28;20193;-61
2023/03/30 08:09:29;;;;;;;3.47;2.00;;;;;;;;;;4987635;28;20054;-62
2023/03/30 08:11:56;;;;;;;;;;;;;;;;;;4985341;28;20505;-61
2023/03/30 08:14:30;;;;;;;2.38;2.00;;;;;;;;;;4990296;28;20012;-60
2023/03/30 08:16:58;;;;;;;1.52;1.40;;;;;;;;;;4985736;28;20240;-60
2023/03/30 08:19:25;;;;;;;2.95;1.92;;;;;;;;;;4985601;28;20054;-60
2023/03/30 08:22:00;;;;;;;2.95;1.83;;;;;;;;;;4989669;28;20055;-61
2023/03/30 08:24:28;;;;;;;1.80;1.70;;;;;;;;;;4985397;28;20109;-61
2023/03/30 08:27:01;;;;;;;3.53;1.70;;;;;;;;;;4988163;28;20145;-60
2023/03/30 08:29:35;;;;;;;2.15;1.77;;;;;;;;;;4984397;28;20049;-60
2023/03/30 08:32:16;;;;;;;3.20;2.70;;;;;;;;;;4985321;28;20054;-61
2023/03/30 08:34:43;;;;;;;2.53;1.80;;;;;;;;;;4986497;28;20062;-61
2023/03/30 08:37:18;;;;;;;2.67;1.95;;;;;;;;;;4985596;28;20053;-60
2023/03/30 08:39:52;;;;;;;2.08;1.85;;;;;;;;;;4983775;28;20050;-62
2023/03/30 08:42:23;;;;;;;2.90;2.13;;;;;;;;;;4982360;28;20081;-60
2023/03/30 08:45:02;;;;;;;1.25;1.08;;;;;;;;;;4990493;28;20056;-62
2023/03/30 08:47:33;;;;;;;2.67;1.90;;;;;;;;;;4987260;28;20058;-62
2023/03/30 08:50:18;;;;;;;7.68;1.65;;;;;;;;;;4974809;28;20553;-62
2023/03/30 08:52:45;;;;;;;2.58;2.08;;;;;;;;;;4986758;28;20058;-61
2023/03/30 08:55:23;;;;;;;2.83;2.00;;;;;;;;;;4986994;28;20050;-61
2023/03/30 08:57:56;;;;;;;2.20;1.73;;;;;;;;;;4986718;28;20145;-62
2023/03/30 09:00:48;;;;;;;3.47;1.90;;;;;;;;;;4987850;28;20586;-61
2023/03/30 09:03:19;;;;;;;2.20;1.65;;;;;;;;;;4984200;28;20064;-60
2023/03/30 09:06:00;;;;;;;3.90;1.50;;;;;;;;;;4988341;28;20055;-61
2023/03/30 09:08:28;;;;;;;2.03;1.52;;;;;;;;;;4990713;28;20310;-61
2023/03/30 09:11:05;;;;;;;1.45;1.35;;;;;;;;;;4985759;28;20054;-63
2023/03/30 09:13:36;;;;;;;3.40;2.70;;;;;;;;;;4985758;28;20058;-61
2023/03/30 09:16:10;;;;;;;2.28;1.60;;;;;;;;;;4987646;28;20513;-61
2023/03/30 09:18:39;;;;;;;3.40;1.83;;;;;;;;;;4985389;28;20950;-62
2023/03/30 09:21:08;;;;;;;1.60;1.50;;;;;;;;;;4987282;28;20488;-61
2023/03/30 09:23:43;;;;;;;4.70;2.00;;;;;;;;;;4984831;28;20050;-61
2023/03/30 09:26:10;;;;;;;2.55;1.88;;;;;;;;;;4988253;28;20046;-61
2023/03/30 09:28:52;;;;;;;3.72;1.52;;;;;;;;;;4985233;28;20885;-62
2023/03/30 09:31:26;;;;;;;3.95;1.65;;;;;;;;;;4960428;28;20099;-62
2023/03/30 09:34:03;;;;;;;2.67;1.60;;;;;;;;;;4959457;28;20059;-62
2023/03/30 09:36:34;;;;;;;2.40;1.67;;;;;;;;;;4965202;28;20055;-62
2023/03/30 09:39:17;;;;;;;2.13;1.70;;;;;;;;;;4968715;28;20054;-62
2023/03/30 09:41:59;;;;;;;4.32;1.73;;;;;;;;;;4966719;28;20133;-61
2023/03/30 09:44:35;;;;;;;2.30;1.65;;;;;;;;;;4968188;28;20052;-62
2023/03/30 09:47:13;;;;;;;1.83;1.35;;;;;;;;;;4971504;28;20082;-61
2023/03/30 09:49:47;;;;;;;1.55;1.35;;;;;;;;;;4963615;28;20065;-62
2023/03/30 09:52:24;;;;;;;2.78;1.50;;;;;;;;;;4967158;28;20063;-55
2023/03/30 09:55:02;;;;;;;1.50;1.40;;;;;;;;;;4962953;28;20073;-56
2023/03/30 09:57:30;;;;;;;1.75;1.35;;;;;;;;;;4974272;28;20054;-58
2023/03/30 10:00:21;;;;;;;2.72;1.67;;;;;;;;;;4974170;28;20141;-70
2023/03/30 10:02:55;;;;;;;1.90;1.75;;;;;;;;;;4963398;28;20451;-62
2023/03/30 10:05:30;;;;;;;2.22;1.50;;;;;;;;;;4966090;28;20051;-62
2023/03/30 10:08:02;;;;;;;2.65;1.60;;;;;;;;;;4972792;28;20138;-62
2023/03/30 10:10:38;;;;;;;1.40;1.30;;;;;;;;;;4966274;28;20065;-62
2023/03/30 10:13:06;;;;;;;2.42;1.50;;;;;;;;;;4962744;28;20131;-62
2023/03/30 10:15:42;;;;;;;3.85;1.80;;;;;;;;;;4959999;28;20129;-62
2023/03/30 10:18:25;;;;;;;1.98;1.77;;;;;;;;;;4969899;28;20054;-62
2023/03/30 10:21:03;;;;;;;1.75;1.40;;;;;;;;;;4972005;28;20072;-62
2023/03/30 10:23:32;;;;;;;1.52;1.40;;;;;;;;;;4968635;28;20078;-62
2023/03/30 10:26:12;;;;;;;1.40;1.30;;;;;;;;;;4970341;28;20047;-60
2023/03/30 10:28:59;;;;;;;1.38;1.20;;;;;;;;;;4960616;28;20574;-60
2023/03/30 10:31:44;;;;;;;3.42;1.63;;;;;;;;;;4988672;28;20129;-60
2023/03/30 10:34:17;;;;;;;2.28;1.70;;;;;;;;;;4989498;28;20779;-67
2023/03/30 10:36:53;;;;;;;2.13;1.65;;;;;;;;;;4992666;28;20214;-69
2023/03/30 10:39:28;;;;;;;2.55;1.63;;;;;;;;;;4993223;28;20391;-70
2023/03/30 10:42:04;;;;;;;3.05;1.48;;;;;;;;;;4991095;28;20049;-69
2023/03/30 10:44:33;;;;;;;2.58;1.73;;;;;;;;;;4988667;28;20709;-70
2023/03/30 10:47:10;;;;;;;1.60;1.50;;;;;;;;;;4987716;28;20060;-70
2023/03/30 13:14:07;;;;;;;4.07;1.48;;;;;;;;;;4965630;28;20051;-69
2023/03/30 13:17:05;;;;;;;3.47;1.95;;;;;;;;;;4973168;28;20141;-69
2023/03/30 13:19:32;;;;;;;4.32;2.15;;;;;;;;;;4967195;28;20562;-69
2023/03/30 13:22:12;;;;;;;2.03;1.75;;;;;;;;;;4968716;28;20063;-69
2023/03/30 13:24:59;;;;;;;2.00;1.67;;;;;;;;;;4972636;28;20054;-68
2023/03/30 13:27:35;;;;;;;3.83;2.08;;;;;;;;;;4972763;28;20759;-62
2023/03/30 13:30:08;;;;;;;3.60;1.80;;;;;;;;;;4970634;28;20054;-62
2023/03/30 13:32:56;;;;;;;5.63;2.15;;;;;;;;;;4971370;28;20062;-62
2023/03/30 13:35:45;;;;;;;4.30;2.50;;;;;;;;;;4969894;28;20054;-63
2023/03/30 13:38:35;;;;;;;6.88;2.10;;;;;;;;;;4969546;28;20485;-62
2023/03/30 13:41:27;;;;;;;3.30;2.40;;;;;;;;;;4972484;28;20052;-62
2023/03/30 13:44:04;;;;;;;3.03;1.70;;;;;;;;;;4970267;28;20175;-62
2023/03/30 13:46:44;;;;;;;2.95;2.00;;;;;;;;;;4970618;28;20177;-63
2023/03/30 13:49:13;;;;;;;2.88;2.00;;;;;;;;;;4968714;28;20050;-62
2023/03/30 13:51:47;;;;;;;3.03;2.20;;;;;;;;;;4969632;28;20145;-62
2023/03/30 13:54:24;;;;;;;2.80;1.88;;;;;;;;;;4973044;28;20125;-62
2023/03/30 13:57:16;;;;;;;2.55;2.00;;;;;;;;;;4970971;28;20061;-63
2023/03/30 13:59:51;;;;;;;3.30;1.90;;;;;;;;;;4967488;28;20098;-63
2023/03/30 14:02:27;;;;;;;3.50;1.95;;;;;;;;;;4966594;28;20736;-63
2023/03/30 14:04:54;;;;;;;3.50;2.00;;;;;;;;;;4967484;28;20503;-63
2023/03/30 14:07:23;;;;;;;5.13;1.98;;;;;;;;;;4969612;28;20078;-57
2023/03/30 14:10:08;;;;;;;2.92;2.00;;;;;;;;;;4971497;28;20529;-55
2023/03/30 14:12:42;;;;;;;3.10;1.83;;;;;;;;;;4977921;28;20061;-57
2023/03/30 14:15:19;;;;;;;3.13;2.25;;;;;;;;;;4992757;28;20062;-56
2023/03/30 14:17:57;;;;;;;4.53;1.73;;;;;;;;;;4988738;28;20157;-56
2023/03/30 14:20:50;;;;;;;3.10;1.58;;;;;;;;;;4982090;28;20051;-55
2023/03/30 14:23:18;;;;;;;1.95;1.67;;;;;;;;;;4991337;28;20406;-56
2023/03/30 14:25:53;;;;;;;2.40;1.67;;;;;;;;;;4988974;28;20060;-60
2023/03/30 14:28:21;;;;;;;3.85;2.10;;;;;;;;;;4986805;28;20173;-60
2023/03/30 14:30:56;;;;;;;3.85;1.90;;;;;;;;;;4987804;28;20116;-61
2023/03/30 14:33:23;;;;;;;3.17;1.63;;;;;;;;;;4989926;28;20054;-61
2023/03/30 14:35:59;;;;;;;3.03;2.08;;;;;;;;;;4989975;28;20465;-61
2023/03/30 14:38:29;;;;;;;2.75;1.52;;;;;;;;;;4986504;28;20502;-51
2023/03/30 14:41:06;;;;;;;3.72;1.80;;;;;;;;;;4992010;28;20505;-54
2023/03/30 14:43:37;;;;;;;2.72;1.80;;;;;;;;;;4986974;28;20050;-53
2023/03/30 14:46:16;;;;;;;5.30;1.92;;;;;;;;;;4988262;28;20145;-54
2023/03/30 14:48:43;;;;;;;;;;;;;;;;;;4986934;28;20129;-52
2023/03/30 14:51:33;;;;;;;3.08;1.50;;;;;;;;;;4973068;28;19922;-50
2023/03/30 14:54:00;;;;;;;3.65;1.77;;;;;;;;;;4989724;28;20062;-60
2023/03/30 14:56:35;;;;;;;4.53;1.75;;;;;;;;;;4986414;28;20050;-56
2023/03/30 14:59:02;;;;;;;3.97;2.03;;;;;;;;;;4984182;28;20057;-55
2023/03/30 15:01:30;;;;;;;;;;;;;;;;;;4990082;28;20088;-58
2023/03/30 15:04:09;;;;;;;2.20;1.80;;;;;;;;;;4985873;28;19930;-58
2023/03/30 15:06:37;;;;;;;3.08;1.67;;;;;;;;;;4989661;28;20173;-56
2023/03/30 15:09:15;;;;;;;3.08;1.65;;;;;;;;;;4985081;28;20511;-58
2023/03/30 15:11:44;;;;;;;3.08;1.50;;;;;;;;;;4974951;28;20054;-56
2023/03/30 15:14:27;;;;;;;1.70;1.50;;;;;;;;;;4972673;28;20058;-56
2023/03/30 15:16:56;;;;;;;2.03;1.55;;;;;;;;;;4978247;28;20075;-55
2023/03/30 15:19:30;;;;;;;2.28;1.70;;;;;;;;;;4979195;28;20088;-50
2023/03/30 15:22:00;;;;;;;1.77;1.60;;;;;;;;;;4976251;28;20057;-54
2023/03/30 15:24:34;;;;;;;2.03;1.13;;;;;;;;;;4980188;28;20508;-53
2023/03/30 15:27:03;;;;;;;2.50;1.70;;;;;;;;;;4961752;28;20057;-51
2023/03/30 15:29:31;;;;;;;2.45;1.58;;;;;;;;;;4977346;28;20054;-68
2023/03/30 15:32:19;;;;;;;2.40;1.48;;;;;;;;;;4978881;28;20115;-60
2023/03/30 15:35:09;;;;;;;2.40;1.60;;;;;;;;;;4977576;28;20050;-60
2023/03/30 15:37:53;;;;;;;2.33;1.80;;;;;;;;;;4973932;28;20058;-58
2023/03/30 15:40:28;;;;;;;2.15;1.70;;;;;;;;;;4977199;28;20464;-59
2023/03/30 15:43:21;;;;;;;2.15;1.40;;;;;;;;;;4976652;28;20089;-59
2023/03/30 15:45:48;;;;;;;1.95;1.55;;;;;;;;;;4976070;28;20118;-60
2023/03/30 15:48:24;;;;;;;2.53;1.75;;;;;;;;;;4975266;28;20238;-52
2023/03/30 15:50:53;;;;;;;2.22;1.80;;;;;;;;;;4974721;28;20058;-53
2023/03/30 15:53:33;;;;;;;1.48;1.20;;;;;;;;;;4975990;28;20057;-56
2023/03/30 15:56:12;;;;;;;2.30;1.48;;;;;;;;;;4973011;28;20149;-56
2023/03/30 15:58:47;;;;;;;3.35;1.50;;;;;;;;;;4975834;28;20417;-56
2023/03/30 16:01:15;;;;;;;1.40;1.30;;;;;;;;;;4977481;28;20056;-56
2023/03/30 16:03:50;;;;;;;2.88;1.75;;;;;;;;;;4978567;28;20074;-57
2023/03/30 16:06:24;;;;;;;2.85;1.40;;;;;;;;;;4975169;28;20061;-57
2023/03/30 16:08:51;;;;;;;2.33;1.70;;;;;;;;;;4974557;28;20583;-57
2023/03/30 16:11:25;;;;;;;1.63;1.20;;;;;;;;;;4980085;28;20544;-55
2023/03/30 16:13:59;;;;;;;3.63;1.83;;;;;;;;;;4977587;28;20050;-57
2023/03/30 16:16:34;;;;;;;1.60;1.50;;;;;;;;;;4972452;28;20054;-68
2023/03/30 16:19:01;;;;;;;2.38;1.20;;;;;;;;;;4958211;28;20062;-61
2023/03/30 16:21:28;;;;;;;2.53;1.25;;;;;;;;;;4976597;28;20145;-55
2023/03/30 16:24:09;;;;;;;2.47;1.33;;;;;;;;;;4974548;28;20141;-55
2023/03/30 16:26:36;;;;;;;1.88;1.48;;;;;;;;;;4974052;28;20526;-58
2023/03/30 16:29:14;;;;;;;2.70;1.63;;;;;;;;;;4977315;28;20068;-58
2023/03/30 16:31:41;;;;;;;2.00;1.50;;;;;;;;;;4977442;28;20515;-58
2023/03/30 16:34:15;;;;;;;2.75;1.58;;;;;;;;;;4975250;28;20142;-55
2023/03/30 16:36:42;;;;;;;4.28;1.40;;;;;;;;;;4979473;28;20172;-59
2023/03/30 16:39:29;;;;;;;1.60;1.50;;;;;;;;;;4980357;28;20046;-57
2023/03/30 16:42:03;;;;;;;1.77;1.33;;;;;;;;;;4975359;28;20060;-54
2023/03/30 16:44:31;;;;;;;1.88;1.33;;;;;;;;;;4971852;28;20062;-57
2023/03/30 16:46:58;;;;;;;1.95;1.50;;;;;;;;;;4968244;28;20069;-54
2023/03/30 16:49:32;;;;;;;1.98;1.48;;;;;;;;;;4967363;28;20148;-59
2023/03/30 16:52:01;;;;;;;1.77;1.40;;;;;;;;;;4973618;28;20065;-56
2023/03/30 16:54:35;;;;;;;1.50;1.40;;;;;;;;;;4972215;28;20080;-61
2023/03/30 16:57:02;;;;;;;1.52;1.30;;;;;;;;;;4974406;28;20060;-69
2023/03/30 16:59:31;;;;;;;2.85;1.83;;;;;;;;;;4977933;28;20063;-69
2023/03/30 17:02:05;;;;;;;2.78;1.10;;;;;;;;;;4978125;28;20523;-69
2023/03/30 17:04:32;;;;;;;1.35;1.25;;;;;;;;;;4983014;28;20077;-69
2023/03/30 17:07:06;;;;;;;1.85;1.35;;;;;;;;;;4961855;28;20521;-69
2023/03/30 17:09:33;;;;;;;2.75;1.40;;;;;;;;;;4975245;28;20506;-68
2023/03/30 17:12:00;;;;;;;2.53;1.45;;;;;;;;;;4973359;28;20140;-61
2023/03/30 17:14:34;;;;;;;1.60;1.08;;;;;;;;;;4980741;28;20076;-61
2023/03/30 17:17:01;;;;;;;1.95;1.35;;;;;;;;;;4982824;28;20065;-58
2023/03/30 17:19:29;;;;;;;4.13;1.65;;;;;;;;;;4985226;28;20055;-51
2023/03/30 17:22:02;;;;;;;3.85;1.42;;;;;;;;;;4967225;28;20065;-55
2023/03/30 17:24:29;;;;;;;1.63;1.35;;;;;;;;;;4985717;28;20157;-54
2023/03/30 17:27:03;;;;;;;1.42;1.15;;;;;;;;;;4985172;28;20057;-57
2023/03/30 17:29:30;;;;;;;2.15;1.48;;;;;;;;;;4984026;28;20109;-54
2023/03/30 17:32:05;;;;;;;1.67;1.58;;;;;;;;;;4981421;28;20050;-58
2023/03/30 17:34:32;;;;;;;1.67;1.38;;;;;;;;;;4985224;28;20426;-57
2023/03/30 17:37:08;;;;;;;2.67;1.30;;;;;;;;;;4987787;28;20109;-57
2023/03/30 17:39:35;;;;;;;1.73;1.42;;;;;;;;;;4978053;28;20498;-57
2023/03/30 17:42:02;;;;;;;1.25;1.15;;;;;;;;;;4972411;28;20051;-55
2023/03/30 17:44:36;;;;;;;1.73;1.20;;;;;;;;;;4972753;28;20090;-58
2023/03/30 17:47:11;;;;;;;1.50;1.40;;;;;;;;;;4974302;28;20062;-57